createdAt,value
2023-12-30T00:00:35.583Z,99951.88
2023-12-30T00:05:37.100Z,99959.47
2023-12-30T00:10:38.518Z,99952.59
2023-12-30T00:15:39.910Z,99953.34
2023-12-30T00:20:41.372Z,99970.19
2023-12-30T00:25:42.779Z,99956.41
2023-12-30T00:30:44.306Z,99968.97
2023-12-30T00:35:46.316Z,99970.91
2023-12-30T00:40:47.719Z,99958.03
2023-12-30T00:45:49.603Z,99960.06
2023-12-30T00:50:51.049Z,99965.63
2023-12-30T00:55:52.466Z,99968.66
2023-12-30T01:00:54.015Z,99978.75
2023-12-30T01:05:55.481Z,99968.56
2023-12-30T01:10:56.857Z,99982.16
2023-12-30T01:15:58.354Z,99976.97
2023-12-30T01:20:59.744Z,99989.72
2023-12-30T01:26:01.243Z,99990.75
2023-12-30T01:31:02.858Z,99999.00
2023-12-30T01:36:05.026Z,100002.00
2023-12-30T01:41:06.486Z,100005.06
2023-12-30T01:46:11.045Z,100011.44
2023-12-30T01:51:24.319Z,100022.19
2023-12-30T01:56:28.566Z,100030.41
2023-12-30T02:01:30.470Z,100045.50
2023-12-30T02:06:31.906Z,100056.84
2023-12-30T02:11:33.505Z,100044.44
2023-12-30T02:16:34.911Z,100038.59
2023-12-30T02:21:36.340Z,100033.41
2023-12-30T02:26:37.716Z,100031.75
2023-12-30T02:31:47.432Z,100030.06
2023-12-30T02:36:49.405Z,100033.41
2023-12-30T02:41:50.918Z,100043.47
2023-12-30T02:46:52.501Z,100048.50
2023-12-30T02:51:55.067Z,100055.34
2023-12-30T02:56:57.105Z,100062.69
2023-12-30T03:01:58.781Z,100041.22
2023-12-30T03:07:00.254Z,100065.56
2023-12-30T03:12:03.270Z,100071.94
2023-12-30T03:17:04.962Z,100077.50
2023-12-30T03:22:06.355Z,100078.25
2023-12-30T03:27:07.759Z,100078.41
2023-12-30T03:32:09.128Z,100088.97
2023-12-30T03:37:11.000Z,100086.63
2023-12-30T03:42:12.463Z,100083.19
2023-12-30T03:47:14.270Z,100094.69
2023-12-30T03:52:15.709Z,100094.13
2023-12-30T03:57:17.109Z,100093.97
2023-12-30T04:02:22.061Z,100101.97
2023-12-30T04:07:23.714Z,100098.38
2023-12-30T04:12:26.021Z,100091.09
2023-12-30T04:17:27.627Z,100087.81
2023-12-30T04:22:29.873Z,100091.81
2023-12-30T04:27:31.463Z,100101.66
2023-12-30T04:32:32.906Z,100094.06
2023-12-30T04:37:34.309Z,100097.91
2023-12-30T04:42:35.873Z,100098.25
2023-12-30T04:47:37.252Z,100103.38
2023-12-30T04:52:38.711Z,100112.00
2023-12-30T04:57:42.322Z,100129.06
2023-12-30T05:02:43.792Z,100130.56
2023-12-30T05:07:45.459Z,100129.06
2023-12-30T05:12:47.117Z,100136.06
2023-12-30T05:17:48.592Z,100139.47
2023-12-30T05:22:49.990Z,100138.19
2023-12-30T05:27:51.340Z,100147.81
2023-12-30T05:32:52.762Z,100153.00
2023-12-30T05:37:54.332Z,100150.97
2023-12-30T05:42:55.737Z,100164.59
2023-12-30T05:47:57.186Z,100159.91
2023-12-30T05:52:58.909Z,100159.00
2023-12-30T05:58:00.358Z,100176.13
2023-12-30T06:03:01.935Z,100193.56
2023-12-30T06:08:03.696Z,100191.16
2023-12-30T06:13:05.353Z,100206.09
2023-12-30T06:18:07.070Z,100201.16
2023-12-30T06:23:08.493Z,100199.44
2023-12-30T06:28:10.317Z,100212.41
2023-12-30T06:33:11.810Z,100202.31
2023-12-30T06:38:15.331Z,100201.66
2023-12-30T06:43:17.972Z,100211.59
2023-12-30T06:48:21.320Z,100220.19
2023-12-30T06:53:22.786Z,100229.78
2023-12-30T06:58:24.174Z,100242.03
2023-12-30T07:03:25.662Z,100242.19
2023-12-30T07:08:27.064Z,100254.59
2023-12-30T07:13:28.517Z,100259.91
2023-12-30T07:18:29.949Z,100249.78
2023-12-30T07:23:31.319Z,100260.34
2023-12-30T07:28:32.925Z,100260.47
2023-12-30T07:33:36.791Z,100257.25
2023-12-30T07:38:38.261Z,100268.97
2023-12-30T07:43:39.650Z,100271.94
2023-12-30T07:48:41.435Z,100274.94
2023-12-30T07:53:42.862Z,100283.56
2023-12-30T07:58:44.256Z,100275.75
2023-12-30T08:03:45.840Z,100285.22
2023-12-30T08:08:47.322Z,100293.59
2023-12-30T08:13:48.756Z,100294.91
2023-12-30T08:18:50.191Z,100264.94
2023-12-30T08:23:51.647Z,100279.53
2023-12-30T08:28:53.976Z,100281.38
2023-12-30T08:33:55.584Z,100281.13
2023-12-30T08:38:57.078Z,100282.13
2023-12-30T08:43:58.459Z,100272.03
2023-12-30T08:49:01.229Z,100281.97
2023-12-30T08:54:03.069Z,100282.09
2023-12-30T08:59:05.068Z,100275.25
2023-12-30T09:04:06.738Z,100287.00
2023-12-30T09:09:08.546Z,100284.63
2023-12-30T09:14:09.923Z,100289.19
2023-12-30T09:19:11.431Z,100305.25
2023-12-30T09:24:12.905Z,100311.47
2023-12-30T09:29:14.373Z,100316.69
2023-12-30T09:34:20.894Z,100321.97
2023-12-30T09:39:28.004Z,100328.31
2023-12-30T09:44:29.813Z,100343.72
2023-12-30T09:49:35.325Z,100345.78
2023-12-30T09:54:48.065Z,100351.28
2023-12-30T09:59:52.210Z,100347.72
2023-12-30T10:04:55.548Z,100348.13
2023-12-30T10:09:56.983Z,100356.66
2023-12-30T10:14:58.373Z,100360.38
2023-12-30T10:19:59.860Z,100350.41
2023-12-30T10:25:03.069Z,100345.34
2023-12-30T10:30:05.096Z,100345.84
2023-12-30T10:35:06.750Z,100327.34
2023-12-30T10:40:11.807Z,100329.94
2023-12-30T10:45:13.277Z,100327.53
2023-12-30T10:50:15.692Z,100321.28
2023-12-30T10:55:19.130Z,100319.41
2023-12-30T11:00:23.732Z,100317.59
2023-12-30T11:05:32.821Z,100313.50
2023-12-30T11:10:34.958Z,100321.16
2023-12-30T11:15:39.227Z,100318.72
2023-12-30T11:20:47.285Z,100310.38
2023-12-30T11:25:49.565Z,100305.09
2023-12-30T11:31:02.037Z,100296.91
2023-12-30T11:36:04.802Z,100302.94
2023-12-30T11:41:06.945Z,100295.19
2023-12-30T11:46:08.478Z,100281.88
2023-12-30T11:51:10.358Z,100285.59
2023-12-30T11:56:12.601Z,100283.94
2023-12-30T12:01:14.275Z,100271.28
2023-12-30T12:06:16.397Z,100260.47
2023-12-30T12:11:18.086Z,100261.34
2023-12-30T12:16:19.645Z,100245.75
2023-12-30T12:21:22.003Z,100254.94
2023-12-30T12:26:24.194Z,100256.22
2023-12-30T12:31:31.802Z,100253.03
2023-12-30T12:36:33.636Z,100257.97
2023-12-30T12:41:36.214Z,100253.47
2023-12-30T12:46:38.411Z,100253.66
2023-12-30T12:51:40.631Z,100251.66
2023-12-30T12:56:43.974Z,100250.13
2023-12-30T13:01:46.311Z,100239.56
2023-12-30T13:06:48.297Z,100237.00
2023-12-30T13:11:49.648Z,100219.28
2023-12-30T13:16:51.035Z,100218.81
2023-12-30T13:21:53.614Z,100212.78
2023-12-30T13:26:59.254Z,100209.13
2023-12-30T13:32:00.926Z,100212.72
2023-12-30T13:37:06.925Z,100210.47
2023-12-30T13:42:10.932Z,100211.25
2023-12-30T13:47:24.898Z,100213.09
2023-12-30T13:52:28.959Z,100221.25
2023-12-30T13:57:33.079Z,100214.59
2023-12-30T14:02:41.774Z,100213.31
2023-12-30T14:07:44.786Z,100213.66
2023-12-30T14:12:46.787Z,100211.75
2023-12-30T14:17:48.389Z,100208.41
2023-12-30T14:22:49.947Z,100205.44
2023-12-30T14:27:51.382Z,100207.22
2023-12-30T14:32:52.840Z,100201.53
2023-12-30T14:37:54.565Z,100207.69
2023-12-30T14:42:56.235Z,100198.72
2023-12-30T14:47:57.885Z,100208.41
2023-12-30T14:52:59.287Z,100202.94
2023-12-30T14:58:00.786Z,100212.44
2023-12-30T15:03:02.524Z,100219.22
2023-12-30T15:08:04.588Z,100210.34
2023-12-30T15:13:06.372Z,100210.63
2023-12-30T15:18:08.043Z,100205.28
2023-12-30T15:23:10.506Z,100214.00
2023-12-30T15:28:11.906Z,100209.34
2023-12-30T15:33:13.446Z,100211.41
2023-12-30T15:38:14.976Z,100215.78
2023-12-30T15:43:16.665Z,100213.09
2023-12-30T15:48:18.324Z,100208.72
2023-12-30T15:53:19.989Z,100201.66
2023-12-30T15:58:21.497Z,100206.69
2023-12-30T16:03:23.188Z,100210.47
2023-12-30T16:08:24.690Z,100197.88
2023-12-30T16:13:26.160Z,100192.09
2023-12-30T16:18:30.721Z,100190.03
2023-12-30T16:23:32.130Z,100179.25
2023-12-30T16:28:34.407Z,100181.91
2023-12-30T16:33:41.506Z,100179.72
2023-12-30T16:38:43.352Z,100177.47
2023-12-30T16:43:44.961Z,100173.25
2023-12-30T16:48:46.592Z,100161.13
2023-12-30T16:53:48.070Z,100160.88
2023-12-30T16:58:49.924Z,100159.06
2023-12-30T17:03:51.405Z,100161.53
2023-12-30T17:08:53.101Z,100150.28
2023-12-30T17:13:54.593Z,100137.25
2023-12-30T17:18:56.014Z,100147.25
2023-12-30T17:23:57.812Z,100142.41
2023-12-30T17:28:59.218Z,100140.81
2023-12-30T17:34:01.004Z,100141.50
2023-12-30T17:39:03.009Z,100139.81
2023-12-30T17:44:05.543Z,100143.69
2023-12-30T17:49:07.190Z,100132.16
2023-12-30T17:54:08.640Z,100132.59
2023-12-30T17:59:10.253Z,100137.69
2023-12-30T18:04:12.939Z,100138.75
2023-12-30T18:09:14.447Z,100138.13
2023-12-30T18:14:18.683Z,100136.66
2023-12-30T18:19:20.280Z,100142.44
2023-12-30T18:24:21.673Z,100156.22
2023-12-30T18:29:23.756Z,100158.09
2023-12-30T18:34:25.258Z,100161.28
2023-12-30T18:39:26.742Z,100156.97
2023-12-30T18:44:28.200Z,100156.97
2023-12-30T18:49:30.007Z,100158.78
2023-12-30T18:54:31.431Z,100161.78
2023-12-30T18:59:32.860Z,100159.22
2023-12-30T19:04:37.573Z,100153.53
2023-12-30T19:09:39.463Z,100148.81
2023-12-30T19:14:40.860Z,100141.31
2023-12-30T19:19:42.447Z,100148.03
2023-12-30T19:24:44.168Z,100136.63
2023-12-30T19:29:45.590Z,100142.34
2023-12-30T19:34:46.987Z,100143.16
2023-12-30T19:39:48.716Z,100138.47
2023-12-30T19:44:50.074Z,100121.97
2023-12-30T19:49:51.487Z,100114.94
2023-12-30T19:54:53.054Z,100101.06
2023-12-30T19:59:54.481Z,100104.91
2023-12-30T20:04:55.961Z,100098.31
2023-12-30T20:09:57.391Z,100096.19
2023-12-30T20:14:58.768Z,100081.38
2023-12-30T20:20:02.722Z,100068.16
2023-12-30T20:25:05.662Z,100062.41
2023-12-30T20:30:07.965Z,100059.94
2023-12-30T20:35:09.585Z,100052.63
2023-12-30T20:40:12.095Z,100041.66
2023-12-30T20:45:15.281Z,100037.91
2023-12-30T20:50:16.774Z,100027.44
2023-12-30T20:55:19.352Z,100025.41
2023-12-30T21:00:23.172Z,100027.06
2023-12-30T21:05:24.712Z,100018.19
2023-12-30T21:10:26.178Z,100026.41
2023-12-30T21:15:27.651Z,100018.72
2023-12-30T21:20:29.066Z,100006.22
2023-12-30T21:25:30.485Z,100000.38
2023-12-30T21:30:31.987Z,99999.97
2023-12-30T21:35:33.413Z,99998.50
2023-12-30T21:40:34.917Z,99991.19
2023-12-30T21:45:36.382Z,99978.34
2023-12-30T21:50:37.842Z,99981.28
2023-12-30T21:55:39.266Z,99971.81
2023-12-30T22:00:41.169Z,99961.34
2023-12-30T22:05:44.073Z,99963.22
2023-12-30T22:10:45.963Z,99947.09
2023-12-30T22:15:47.803Z,99956.16
2023-12-30T22:20:49.180Z,99951.44
2023-12-30T22:25:50.633Z,99954.31
2023-12-30T22:30:52.206Z,99952.75
2023-12-30T22:35:53.640Z,99944.59
2023-12-30T22:40:55.114Z,99943.53
2023-12-30T22:45:59.757Z,99936.78
2023-12-30T22:51:01.198Z,99931.78
2023-12-30T22:56:03.749Z,99929.09
2023-12-30T23:01:06.054Z,99926.78
2023-12-30T23:06:09.218Z,99914.84
2023-12-30T23:11:11.173Z,99912.31
2023-12-30T23:16:14.470Z,99903.44
2023-12-30T23:21:15.853Z,99899.06
2023-12-30T23:26:17.321Z,99883.50
2023-12-30T23:31:18.707Z,99875.63
2023-12-30T23:36:20.181Z,99874.81
2023-12-30T23:41:21.529Z,99860.97
2023-12-30T23:46:22.979Z,99842.44
2023-12-30T23:51:24.447Z,99837.00
2023-12-30T23:56:26.120Z,99832.00
